Time;durP1;ratioP1;P1;durP2;ratioP2;P2;SDS_P1;SDS_P2;PMS_P1;PMS_P2;Temp;Humidity;BMP_temperature;BMP_pressure;BME280_temperature;BME280_humidity;BME280_pressure;Samples;Min_cycle;Max_cycle;Signal;HPM_P1;HPM_P2
2023/02/04 00:01:42;;;;;;;10.10;2.17;;;9.00;99.90;;;;;;5039577;28;20051;-32
2023/02/04 00:04:08;;;;;;;16.05;2.80;;;9.10;99.90;;;;;;5039923;28;20477;-32
2023/02/04 00:06:36;;;;;;;12.35;2.85;;;9.00;99.90;;;;;;5039737;28;20028;-32
2023/02/04 00:09:02;;;;;;;14.15;2.53;;;9.00;99.90;;;;;;5039843;28;20080;-32
2023/02/04 00:11:28;;;;;;;11.85;2.83;;;9.00;99.90;;;;;;5040182;28;20033;-36
2023/02/04 00:13:53;;;;;;;12.05;2.78;;;9.00;99.90;;;;;;5039624;28;20024;-34
2023/02/04 00:16:19;;;;;;;13.50;2.80;;;9.00;99.90;;;;;;5041701;28;20058;-35
2023/02/04 00:18:44;;;;;;;15.63;3.33;;;8.90;99.90;;;;;;5043666;28;20028;-33
2023/02/04 00:21:10;;;;;;;10.95;2.90;;;8.90;99.90;;;;;;5043439;28;20036;-33
2023/02/04 00:23:35;;;;;;;20.23;4.38;;;8.90;99.90;;;;;;5044232;28;20115;-33
2023/02/04 00:26:01;;;;;;;10.30;2.50;;;8.80;99.90;;;;;;5043498;28;20040;-32
2023/02/04 00:28:26;;;;;;;15.20;3.42;;;8.90;99.90;;;;;;5043499;28;20029;-32
2023/02/04 00:30:52;;;;;;;15.35;2.90;;;8.80;99.90;;;;;;5043764;28;20496;-33
2023/02/04 00:33:17;;;;;;;14.38;2.75;;;8.80;99.90;;;;;;5043748;28;20028;-33
2023/02/04 00:35:43;;;;;;;12.38;2.28;;;8.80;99.90;;;;;;5042589;28;20075;-34
2023/02/04 00:38:08;;;;;;;11.10;3.42;;;8.80;99.90;;;;;;5044180;28;20773;-34
2023/02/04 00:40:34;;;;;;;11.57;2.70;;;8.80;99.90;;;;;;5043066;28;20029;-32
2023/02/04 00:42:59;;;;;;;13.07;1.90;;;8.80;99.90;;;;;;5043839;28;20033;-33
2023/02/04 00:45:25;;;;;;;10.00;2.20;;;8.80;99.90;;;;;;5044210;28;20031;-33
2023/02/04 00:47:51;;;;;;;12.13;2.28;;;8.70;99.90;;;;;;5043206;28;20060;-32
2023/02/04 00:50:17;;;;;;;10.93;2.33;;;8.70;99.90;;;;;;5042510;28;20043;-33
2023/02/04 00:52:42;;;;;;;11.02;2.60;;;8.70;99.90;;;;;;5043584;28;20029;-33
2023/02/04 00:55:09;;;;;;;13.43;2.53;;;8.70;99.90;;;;;;5042623;28;20040;-32
2023/02/04 00:57:34;;;;;;;15.48;2.85;;;8.70;99.90;;;;;;5042196;28;20033;-33
2023/02/04 01:00:00;;;;;;;12.63;2.50;;;8.70;99.90;;;;;;5042490;28;20111;-32
2023/02/04 01:02:26;;;;;;;10.77;2.20;;;8.60;99.90;;;;;;5042759;28;20031;-32
2023/02/04 01:04:51;;;;;;;11.70;2.45;;;8.70;99.90;;;;;;5042241;28;20033;-33
2023/02/04 01:07:17;;;;;;;13.10;2.13;;;8.60;99.90;;;;;;5043492;28;20029;-33
2023/02/04 01:09:43;;;;;;;12.93;2.88;;;8.60;99.90;;;;;;5042870;28;20029;-33
2023/02/04 01:12:08;;;;;;;13.60;2.97;;;8.60;99.90;;;;;;5042182;28;20072;-33
2023/02/04 01:14:34;;;;;;;12.40;2.22;;;8.50;99.90;;;;;;5042822;28;20037;-32
2023/02/04 01:16:59;;;;;;;16.35;3.30;;;8.50;99.90;;;;;;5042052;28;20781;-32
2023/02/04 01:19:25;;;;;;;13.45;2.63;;;8.40;99.90;;;;;;5043164;28;20037;-32
2023/02/04 01:21:51;;;;;;;11.13;2.60;;;8.40;99.90;;;;;;5042133;28;20037;-33
2023/02/04 01:24:16;;;;;;;12.23;2.30;;;8.40;99.90;;;;;;5041151;28;20051;-33
2023/02/04 01:26:42;;;;;;;13.70;2.30;;;8.40;99.90;;;;;;5041547;28;20107;-33
2023/02/04 01:29:07;;;;;;;10.68;2.08;;;8.30;99.90;;;;;;5042866;28;20029;-33
2023/02/04 01:31:33;;;;;;;15.55;2.58;;;8.40;99.90;;;;;;5041440;28;20124;-33
2023/02/04 01:34:00;;;;;;;15.23;2.33;;;8.40;99.90;;;;;;5041689;28;20114;-33
2023/02/04 01:36:26;;;;;;;16.70;2.63;;;8.40;99.90;;;;;;5042609;28;20678;-34
2023/02/04 01:38:51;;;;;;;13.57;2.72;;;8.40;99.90;;;;;;5041263;28;20506;-33
2023/02/04 01:41:18;;;;;;;17.50;3.67;;;8.40;99.90;;;;;;5042765;28;20035;-34
2023/02/04 01:43:45;;;;;;;11.57;2.90;;;8.40;99.90;;;;;;5042534;28;20056;-33
2023/02/04 01:46:10;;;;;;;10.20;2.40;;;8.40;99.90;;;;;;5041315;28;20035;-34
2023/02/04 01:48:36;;;;;;;12.57;2.50;;;8.40;99.90;;;;;;5042253;28;20025;-34
2023/02/04 01:51:06;;;;;;;12.20;2.50;;;8.40;99.90;;;;;;5042145;28;20052;-32
2023/02/04 01:53:33;;;;;;;12.18;2.45;;;8.40;99.90;;;;;;5041256;28;20706;-33
2023/02/04 01:55:58;;;;;;;14.18;2.60;;;8.30;99.90;;;;;;5042408;28;20040;-34
2023/02/04 01:58:24;;;;;;;14.10;2.30;;;8.30;99.90;;;;;;5042055;28;20365;-34
2023/02/04 02:00:50;;;;;;;16.10;2.75;;;8.30;99.90;;;;;;5042042;28;20144;-34
2023/02/04 02:03:15;;;;;;;13.02;2.13;;;8.30;99.90;;;;;;5041552;28;20029;-33
2023/02/04 02:05:45;;;;;;;12.43;2.10;;;8.20;99.90;;;;;;5041792;28;20067;-32
2023/02/04 02:08:12;;;;;;;14.82;3.08;;;8.20;99.90;;;;;;5040776;28;20439;-34
2023/02/04 02:10:40;;;;;;;14.60;2.83;;;8.10;99.90;;;;;;5041964;28;20032;-34
2023/02/04 02:13:12;;;;;;;13.75;2.63;;;8.10;99.90;;;;;;5041012;28;20079;-33
2023/02/04 02:15:40;;;;;;;12.57;2.90;;;8.10;99.90;;;;;;5041987;28;20052;-33
2023/02/04 02:18:06;;;;;;;16.15;3.20;;;8.10;99.90;;;;;;5040897;28;20078;-33
2023/02/04 02:20:32;;;;;;;13.07;2.65;;;8.10;99.90;;;;;;5040638;28;20029;-33
2023/02/04 02:23:16;;;;;;;9.98;2.70;;;8.10;99.90;;;;;;5041357;28;20017;-34
2023/02/04 02:25:42;;;;;;;13.93;2.65;;;8.10;99.90;;;;;;5040840;28;20563;-33
2023/02/04 02:28:13;;;;;;;16.60;2.75;;;8.00;99.90;;;;;;5040785;28;20033;-34
2023/02/04 02:30:40;;;;;;;16.30;2.78;;;8.00;99.90;;;;;;5041746;28;20029;-33
2023/02/04 02:33:06;;;;;;;16.65;2.80;;;7.90;99.90;;;;;;5041410;28;20033;-33
2023/02/04 02:35:33;;;;;;;16.10;2.95;;;7.90;99.90;;;;;;5040635;28;20053;-33
2023/02/04 02:37:58;;;;;;;14.32;2.30;;;7.90;99.90;;;;;;5040699;28;20052;-33
2023/02/04 02:40:24;;;;;;;15.55;3.30;;;7.90;99.90;;;;;;5040661;28;20120;-33
2023/02/04 02:42:52;;;;;;;10.02;2.83;;;7.80;99.90;;;;;;5040581;28;20083;-33
2023/02/04 02:45:23;;;;;;;10.02;2.38;;;7.80;99.90;;;;;;5038205;28;20171;-33
2023/02/04 02:47:49;;;;;;;17.65;3.00;;;7.70;99.90;;;;;;5041598;28;20031;-33
2023/02/04 02:50:19;;;;;;;10.82;2.13;;;7.70;99.90;;;;;;5040223;28;20115;-36
2023/02/04 02:52:45;;;;;;;13.50;2.40;;;7.70;99.90;;;;;;5040921;28;20040;-33
2023/02/04 02:55:17;;;;;;;11.27;2.45;;;7.70;99.90;;;;;;5040821;28;20080;-33
2023/02/04 02:57:53;;;;;;;11.48;3.35;;;7.60;99.90;;;;;;5040497;28;20072;-32
2023/02/04 03:00:25;;;;;;;11.98;2.67;;;7.60;99.90;;;;;;5041456;28;20053;-34
2023/02/04 03:03:16;;;;;;;14.98;2.70;;;7.50;99.90;;;;;;5039654;28;20037;-33
2023/02/04 03:05:47;;;;;;;19.17;3.40;;;7.50;99.90;;;;;;5037575;28;20499;-33
2023/02/04 03:08:15;;;;;;;13.50;2.60;;;7.50;99.90;;;;;;5041305;28;20029;-33
2023/02/04 03:10:41;;;;;;;12.02;2.20;;;7.50;99.90;;;;;;5039758;28;20025;-33
2023/02/04 03:13:08;;;;;;;12.20;2.63;;;7.40;99.90;;;;;;5040569;28;20036;-33
2023/02/04 03:15:34;;;;;;;14.60;3.42;;;7.40;99.90;;;;;;5039859;28;20523;-34
2023/02/04 03:18:00;;;;;;;10.45;2.53;;;7.40;99.90;;;;;;5039589;28;20029;-34
2023/02/04 03:20:28;;;;;;;12.18;2.50;;;7.30;99.90;;;;;;5040406;28;20730;-33
2023/02/04 03:22:55;;;;;;;16.30;3.17;;;7.30;99.90;;;;;;5040692;28;20042;-34
2023/02/04 03:25:23;;;;;;;12.18;2.40;;;7.20;99.90;;;;;;5039649;28;20025;-33
2023/02/04 03:27:50;;;;;;;8.35;2.47;;;7.20;99.90;;;;;;5040109;28;20051;-33
2023/02/04 03:30:15;;;;;;;11.35;2.92;;;7.10;99.90;;;;;;5040047;28;20032;-33
2023/02/04 03:32:41;;;;;;;11.30;2.45;;;7.10;99.90;;;;;;5039570;28;20370;-32
2023/02/04 03:35:06;;;;;;;12.90;3.03;;;7.10;99.90;;;;;;5039541;28;20053;-33
2023/02/04 03:37:32;;;;;;;13.82;3.17;;;7.00;99.90;;;;;;5040049;28;20457;-33
2023/02/04 03:39:58;;;;;;;11.65;2.35;;;7.00;99.90;;;;;;5039956;28;20027;-33
2023/02/04 03:42:24;;;;;;;12.88;2.63;;;6.90;99.90;;;;;;5040849;28;20751;-33
2023/02/04 03:44:50;;;;;;;9.27;2.40;;;6.90;99.90;;;;;;5039749;28;20033;-32
2023/02/04 03:47:15;;;;;;;12.57;2.38;;;6.90;99.90;;;;;;5040217;28;20036;-34
2023/02/04 03:49:41;;;;;;;14.75;2.88;;;6.80;99.90;;;;;;5040037;28;20024;-32
2023/02/04 03:52:06;;;;;;;14.80;3.33;;;6.80;99.90;;;;;;5043425;28;20024;-33
2023/02/04 03:54:32;;;;;;;12.25;2.13;;;6.70;99.90;;;;;;5044516;28;20037;-34
2023/02/04 03:56:57;;;;;;;14.05;2.15;;;6.70;99.90;;;;;;5043684;28;20507;-38
2023/02/04 03:59:23;;;;;;;13.20;2.55;;;6.70;99.90;;;;;;5043542;28;20396;-34
2023/02/04 04:01:48;;;;;;;16.20;2.83;;;6.70;99.90;;;;;;5037256;28;20070;-33
2023/02/04 04:04:14;;;;;;;10.18;3.40;;;6.70;99.90;;;;;;5044228;28;20495;-32
2023/02/04 04:06:39;;;;;;;12.45;2.38;;;6.60;99.90;;;;;;5043786;28;20024;-34
2023/02/04 04:09:05;;;;;;;13.10;2.67;;;6.60;99.90;;;;;;5044689;28;20385;-33
2023/02/04 04:11:33;;;;;;;12.57;2.60;;;6.60;99.90;;;;;;5043527;28;20029;-33
2023/02/04 04:14:00;;;;;;;9.65;2.47;;;6.60;99.90;;;;;;5043110;28;20528;-33
2023/02/04 04:16:25;;;;;;;12.23;3.15;;;6.60;99.90;;;;;;5044263;28;20036;-33
2023/02/04 04:18:51;;;;;;;14.40;3.22;;;6.60;99.90;;;;;;5043645;28;20028;-34
2023/02/04 04:21:16;;;;;;;15.43;2.83;;;6.60;99.90;;;;;;5042698;28;20025;-34
2023/02/04 04:23:42;;;;;;;12.93;2.45;;;6.60;99.90;;;;;;5044250;28;20025;-33
2023/02/04 04:26:08;;;;;;;13.65;3.20;;;6.50;99.90;;;;;;5043855;28;20060;-33
2023/02/04 04:28:33;;;;;;;13.20;2.45;;;6.50;99.90;;;;;;5042099;28;20123;-34
2023/02/04 04:30:59;;;;;;;15.25;3.47;;;6.50;99.90;;;;;;5043515;28;20025;-33
2023/02/04 04:33:24;;;;;;;17.17;2.67;;;6.60;99.90;;;;;;5043764;28;20464;-34
2023/02/04 04:35:50;;;;;;;13.38;2.63;;;6.60;99.90;;;;;;5042709;28;20501;-34
2023/02/04 04:38:15;;;;;;;14.18;3.00;;;6.60;99.90;;;;;;5043094;28;20029;-33
2023/02/04 04:40:41;;;;;;;11.85;2.58;;;6.50;99.90;;;;;;5042808;28;20033;-33
2023/02/04 04:43:06;;;;;;;17.52;3.20;;;6.50;99.90;;;;;;5042116;28;20017;-33
2023/02/04 04:45:32;;;;;;;13.40;2.47;;;6.50;99.90;;;;;;5043777;28;20029;-33
2023/02/04 04:47:58;;;;;;;13.55;2.63;;;6.50;99.90;;;;;;5042421;28;20865;-32
2023/02/04 04:50:23;;;;;;;15.63;2.78;;;6.40;99.90;;;;;;5043541;28;20021;-33
2023/02/04 04:52:49;;;;;;;12.70;2.95;;;6.40;99.90;;;;;;5043196;28;20017;-33
2023/02/04 04:55:14;;;;;;;16.08;3.00;;;6.50;99.90;;;;;;5042873;28;20996;-34
2023/02/04 04:57:40;;;;;;;10.77;2.72;;;6.50;99.90;;;;;;5043234;28;20409;-33
2023/02/04 05:00:07;;;;;;;10.38;2.55;;;6.50;99.90;;;;;;5044317;28;20025;-34
2023/02/04 05:02:33;;;;;;;15.43;2.97;;;6.60;99.90;;;;;;5042417;28;20025;-33
2023/02/04 05:05:01;;;;;;;10.80;2.38;;;6.60;99.90;;;;;;5042817;28;20025;-34
2023/02/04 05:07:27;;;;;;;14.63;2.50;;;6.60;99.90;;;;;;5043485;28;20052;-34
2023/02/04 05:09:52;;;;;;;12.88;3.00;;;6.70;99.90;;;;;;5042281;28;20108;-34
2023/02/04 05:12:18;;;;;;;11.50;2.78;;;6.80;99.90;;;;;;5043515;28;20021;-32
2023/02/04 05:14:43;;;;;;;15.00;3.05;;;6.80;99.90;;;;;;5042882;28;20079;-33
2023/02/04 05:17:09;;;;;;;16.00;2.80;;;6.90;99.90;;;;;;5042018;28;20044;-33
2023/02/04 05:19:35;;;;;;;15.43;2.92;;;7.00;99.90;;;;;;5043447;28;20036;-34
2023/02/04 05:22:00;;;;;;;16.45;3.05;;;7.00;99.90;;;;;;5042861;28;20801;-34
2023/02/04 05:24:26;;;;;;;16.60;2.83;;;7.00;99.90;;;;;;5042178;28;20032;-34
2023/02/04 05:26:52;;;;;;;12.68;3.40;;;7.10;99.90;;;;;;5042930;28;20037;-34
2023/02/04 05:29:17;;;;;;;16.65;2.42;;;7.10;99.90;;;;;;5042490;28;20044;-34
2023/02/04 05:31:43;;;;;;;17.05;3.28;;;7.00;99.90;;;;;;5042061;28;20033;-33
2023/02/04 05:34:08;;;;;;;12.20;3.13;;;7.10;99.90;;;;;;5042771;28;20754;-33
2023/02/04 05:36:34;;;;;;;10.43;3.10;;;7.10;99.90;;;;;;5042432;28;20032;-33
2023/02/04 05:38:59;;;;;;;12.45;2.60;;;7.10;99.90;;;;;;5041589;28;20086;-32
2023/02/04 05:41:25;;;;;;;16.73;3.45;;;7.10;99.90;;;;;;5042436;28;20099;-33
2023/02/04 05:43:50;;;;;;;14.13;2.78;;;7.10;99.90;;;;;;5042499;28;20028;-33
2023/02/04 05:46:16;;;;;;;11.73;2.22;;;7.10;99.90;;;;;;5041865;28;20152;-33
2023/02/04 05:48:42;;;;;;;14.52;2.70;;;7.10;99.90;;;;;;5041945;28;20033;-33
2023/02/04 05:51:07;;;;;;;18.98;3.80;;;7.10;99.90;;;;;;5041625;28;20047;-33
2023/02/04 05:53:33;;;;;;;15.32;2.80;;;7.20;99.90;;;;;;5041926;28;20120;-33
2023/02/04 05:55:58;;;;;;;11.93;2.95;;;7.20;99.90;;;;;;5042587;28;20120;-33
2023/02/04 05:58:24;;;;;;;14.43;2.80;;;7.20;99.90;;;;;;5042226;28;20111;-34
2023/02/04 06:00:50;;;;;;;17.63;3.33;;;7.20;99.90;;;;;;5042952;28;20112;-34
2023/02/04 06:03:18;;;;;;;20.70;3.72;;;7.20;99.90;;;;;;5042650;28;20629;-34
2023/02/04 06:05:43;;;;;;;13.63;3.38;;;7.20;99.90;;;;;;5041936;28;20032;-34
2023/02/04 06:08:09;;;;;;;12.38;3.45;;;7.20;99.90;;;;;;5042103;28;20025;-33
2023/02/04 06:10:35;;;;;;;13.68;3.25;;;7.30;99.90;;;;;;5041722;28;20033;-33
2023/02/04 06:13:01;;;;;;;13.13;3.47;;;7.20;99.90;;;;;;5041185;28;20043;-33
2023/02/04 06:15:26;;;;;;;13.00;3.58;;;7.30;99.90;;;;;;5040728;28;20142;-33
2023/02/04 06:17:52;;;;;;;9.68;2.63;;;7.20;99.90;;;;;;5041467;28;20107;-34
2023/02/04 06:20:17;;;;;;;16.35;3.88;;;7.20;99.90;;;;;;5041754;28;20214;-33
2023/02/04 06:22:43;;;;;;;13.05;3.15;;;7.20;99.90;;;;;;5041745;28;20017;-32
2023/02/04 06:25:08;;;;;;;14.02;3.05;;;7.10;99.90;;;;;;5041377;28;20033;-33
2023/02/04 06:27:34;;;;;;;9.60;2.42;;;7.10;99.90;;;;;;5041383;28;20788;-32
2023/02/04 06:29:59;;;;;;;15.13;4.05;;;7.00;99.90;;;;;;5041494;28;20037;-33
2023/02/04 06:32:25;;;;;;;17.00;3.17;;;7.00;99.90;;;;;;5041493;28;20080;-34
2023/02/04 06:34:50;;;;;;;15.23;3.25;;;7.00;99.90;;;;;;5040726;28;20053;-32
2023/02/04 06:37:16;;;;;;;11.32;2.90;;;7.00;99.90;;;;;;5041108;28;20032;-33
2023/02/04 06:39:42;;;;;;;13.25;3.17;;;7.00;99.90;;;;;;5041015;28;20025;-33
2023/02/04 06:42:08;;;;;;;15.13;3.30;;;7.00;99.90;;;;;;5040563;28;20095;-34
2023/02/04 06:44:33;;;;;;;15.07;3.58;;;7.00;99.90;;;;;;5041555;28;20566;-32
2023/02/04 06:46:59;;;;;;;16.70;3.28;;;7.00;99.90;;;;;;5040990;28;20358;-33
2023/02/04 06:49:25;;;;;;;12.93;2.80;;;7.00;99.90;;;;;;5040201;28;20113;-32
2023/02/04 06:51:50;;;;;;;13.15;2.88;;;7.00;99.90;;;;;;5040748;28;20033;-33
2023/02/04 06:54:16;;;;;;;11.73;2.75;;;7.00;99.90;;;;;;5040064;28;20124;-34
2023/02/04 06:56:42;;;;;;;11.68;2.92;;;7.00;99.90;;;;;;5040721;28;20031;-32
2023/02/04 06:59:08;;;;;;;11.85;3.60;;;7.10;99.90;;;;;;5040545;28;20025;-32
2023/02/04 07:01:34;;;;;;;16.33;3.40;;;7.10;99.90;;;;;;5039598;28;20040;-34
2023/02/04 07:04:00;;;;;;;15.75;3.47;;;7.10;99.90;;;;;;5040979;28;20024;-33
2023/02/04 07:06:25;;;;;;;13.82;3.20;;;7.10;99.90;;;;;;5040661;28;20811;-34
2023/02/04 07:08:51;;;;;;;14.75;2.92;;;7.10;99.90;;;;;;5039995;28;20736;-33
2023/02/04 07:11:16;;;;;;;13.00;3.42;;;7.10;99.90;;;;;;5041001;28;20519;-32
2023/02/04 07:13:42;;;;;;;11.68;2.72;;;7.10;99.90;;;;;;5040403;28;20021;-33
2023/02/04 07:16:10;;;;;;;14.68;3.22;;;7.10;99.90;;;;;;5039885;28;20044;-33
2023/02/04 07:18:36;;;;;;;14.00;3.83;;;7.10;99.90;;;;;;5040245;28;20041;-32
2023/02/04 07:21:01;;;;;;;9.93;2.40;;;7.20;99.90;;;;;;5040594;28;20518;-32
2023/02/04 07:23:27;;;;;;;12.50;3.22;;;7.20;99.90;;;;;;5040162;28;20562;-33
2023/02/04 07:25:54;;;;;;;11.90;3.00;;;7.10;99.90;;;;;;5040604;28;20136;-32
2023/02/04 07:28:20;;;;;;;19.25;3.50;;;7.10;99.90;;;;;;5040401;28;20134;-33
2023/02/04 07:30:46;;;;;;;13.00;3.05;;;7.10;99.90;;;;;;5039333;28;20033;-33
2023/02/04 07:33:14;;;;;;;15.93;3.53;;;7.10;99.90;;;;;;5040410;28;20040;-32
2023/02/04 07:35:41;;;;;;;18.55;3.42;;;7.10;99.90;;;;;;5040643;28;20053;-32
2023/02/04 07:38:06;;;;;;;13.50;3.13;;;7.10;99.90;;;;;;5039860;28;20021;-33
2023/02/04 07:40:33;;;;;;;15.80;3.47;;;7.10;99.90;;;;;;5040647;28;20028;-33
2023/02/04 07:42:58;;;;;;;13.50;3.15;;;7.10;99.90;;;;;;5039943;28;20027;-33
2023/02/04 07:45:24;;;;;;;12.80;3.35;;;7.20;99.90;;;;;;5039625;28;20029;-32
2023/02/04 07:47:49;;;;;;;17.23;3.63;;;7.20;99.90;;;;;;5040949;28;20473;-33
2023/02/04 07:50:15;;;;;;;15.25;3.05;;;7.30;99.90;;;;;;5040023;28;20389;-31
2023/02/04 07:52:41;;;;;;;22.05;3.63;;;7.20;99.90;;;;;;5039686;28;20744;-32
2023/02/04 07:55:07;;;;;;;17.13;2.95;;;7.30;99.90;;;;;;5040013;28;20091;-33
2023/02/04 07:57:33;;;;;;;12.75;3.05;;;7.30;99.90;;;;;;5040471;28;20468;-33
2023/02/04 07:59:59;;;;;;;17.00;3.08;;;7.40;99.90;;;;;;5039413;28;20126;-33
2023/02/04 08:02:25;;;;;;;16.27;3.13;;;7.40;99.90;;;;;;5040493;28;20055;-33
2023/02/04 08:04:51;;;;;;;14.27;3.45;;;7.40;99.90;;;;;;5039463;28;20027;-33
2023/02/04 08:07:16;;;;;;;16.35;3.15;;;7.50;99.90;;;;;;5039947;28;20036;-33
2023/02/04 08:09:42;;;;;;;14.60;3.10;;;7.50;99.90;;;;;;5039459;28;20036;-33
2023/02/04 08:12:07;;;;;;;15.55;3.40;;;7.50;99.90;;;;;;5039312;28;20067;-33
2023/02/04 08:14:33;;;;;;;18.10;4.40;;;7.50;99.90;;;;;;5039473;28;20043;-34
2023/02/04 08:16:58;;;;;;;13.02;3.30;;;7.50;99.90;;;;;;5040401;28;20116;-33
2023/02/04 08:19:24;;;;;;;16.70;3.75;;;7.60;99.90;;;;;;5039885;28;20028;-33
2023/02/04 08:21:53;;;;;;;17.58;3.88;;;7.60;99.90;;;;;;5040007;28;20029;-33
2023/02/04 08:24:18;;;;;;;20.38;3.90;;;7.70;99.90;;;;;;5040207;28;20039;-33
2023/02/04 08:26:47;;;;;;;17.05;3.65;;;7.70;99.90;;;;;;5039100;28;20021;-33
2023/02/04 08:29:15;;;;;;;15.43;3.80;;;7.80;99.90;;;;;;5039827;28;20032;-33
2023/02/04 08:31:41;;;;;;;20.73;5.07;;;7.80;99.90;;;;;;5039458;28;20032;-32
2023/02/04 08:34:07;;;;;;;15.45;4.07;;;7.80;99.90;;;;;;5039309;28;20049;-32
2023/02/04 08:36:33;;;;;;;17.38;4.10;;;7.90;99.90;;;;;;5039193;28;20074;-32
2023/02/04 08:38:58;;;;;;;15.75;4.05;;;7.90;99.90;;;;;;5043131;28;20120;-32
2023/02/04 08:41:24;;;;;;;18.63;4.35;;;7.90;99.90;;;;;;5042616;28;20033;-32
2023/02/04 08:43:49;;;;;;;13.07;3.67;;;7.90;99.90;;;;;;5043441;28;20135;-33
2023/02/04 08:46:15;;;;;;;17.38;4.00;;;7.90;99.90;;;;;;5043317;28;20104;-33
2023/02/04 08:48:43;;;;;;;14.45;3.25;;;7.90;99.90;;;;;;5042547;28;20147;-33
2023/02/04 08:51:09;;;;;;;18.98;3.83;;;7.90;99.90;;;;;;5042700;28;20074;-32
2023/02/04 08:53:34;;;;;;;18.77;4.00;;;8.00;99.90;;;;;;5043528;28;20029;-33
2023/02/04 08:56:00;;;;;;;13.88;3.20;;;8.00;99.90;;;;;;5041759;28;20039;-33
2023/02/04 08:58:26;;;;;;;16.52;3.30;;;8.10;99.90;;;;;;5043342;28;20033;-34
2023/02/04 09:00:54;;;;;;;16.75;3.50;;;8.10;99.90;;;;;;5042900;28;20448;-34
2023/02/04 09:03:20;;;;;;;16.17;4.38;;;8.20;99.90;;;;;;5043046;28;20570;-33
2023/02/04 09:05:46;;;;;;;15.70;3.33;;;8.20;99.90;;;;;;5043395;28;20285;-33
2023/02/04 09:08:12;;;;;;;18.42;3.80;;;8.30;99.90;;;;;;5042845;28;20033;-34
2023/02/04 09:10:37;;;;;;;20.10;3.97;;;8.30;99.90;;;;;;5043104;28;20740;-43
2023/02/04 09:13:03;;;;;;;21.98;3.78;;;8.40;99.90;;;;;;5042792;28;20457;-43
2023/02/04 09:15:28;;;;;;;22.33;3.75;;;8.50;99.90;;;;;;5042946;28;20072;-44
2023/02/04 09:18:10;;;;;;;16.90;3.33;;;8.60;99.90;;;;;;5042914;28;20033;-43
2023/02/04 09:20:36;;;;;;;17.17;3.60;;;8.70;99.90;;;;;;5043096;28;20039;-44
2023/02/04 09:23:01;;;;;;;18.33;3.67;;;8.70;99.90;;;;;;5042230;28;20033;-43
2023/02/04 09:25:27;;;;;;;14.25;3.97;;;8.80;99.90;;;;;;5043792;28;20078;-43
2023/02/04 09:27:52;;;;;;;23.70;4.20;;;8.80;99.90;;;;;;5042422;28;20040;-43
2023/02/04 09:30:18;;;;;;;16.52;3.97;;;8.80;99.90;;;;;;5042993;28;20029;-43
2023/02/04 09:32:43;;;;;;;18.85;3.70;;;8.80;99.90;;;;;;5042425;28;20024;-43
2023/02/04 09:35:09;;;;;;;23.27;4.57;;;8.80;99.90;;;;;;5042324;28;20049;-43
2023/02/04 09:37:34;;;;;;;22.40;4.63;;;8.90;99.90;;;;;;5042265;28;20024;-43
2023/02/04 09:40:00;;;;;;;17.20;3.38;;;8.80;99.90;;;;;;5042820;28;20044;-43
2023/02/04 09:42:26;;;;;;;22.55;4.22;;;8.80;99.90;;;;;;5042393;28;20043;-43
2023/02/04 09:44:52;;;;;;;16.08;3.33;;;8.80;99.90;;;;;;5041425;28;20102;-44
2023/02/04 09:47:22;;;;;;;12.25;3.10;;;8.70;99.90;;;;;;5042725;28;20032;-43
2023/02/04 09:49:48;;;;;;;15.00;2.88;;;8.70;99.90;;;;;;5042052;28;20017;-42
2023/02/04 09:52:16;;;;;;;19.08;3.33;;;8.60;99.90;;;;;;5041286;28;20028;-43
2023/02/04 09:54:43;;;;;;;20.15;4.47;;;8.60;99.90;;;;;;5042582;28;20029;-42
2023/02/04 09:57:22;;;;;;;20.67;3.40;;;8.60;99.90;;;;;;5042014;28;20028;-43
2023/02/04 09:59:49;;;;;;;17.75;3.60;;;8.50;99.90;;;;;;5038401;28;20403;-44
2023/02/04 10:02:24;;;;;;;17.75;3.67;;;8.60;99.90;;;;;;5042434;28;20033;-43
2023/02/04 10:04:53;;;;;;;16.40;3.75;;;8.60;99.90;;;;;;5040950;28;20059;-44
2023/02/04 10:07:23;;;;;;;19.05;3.95;;;8.70;99.90;;;;;;5043220;28;20378;-43
2023/02/04 10:09:50;;;;;;;16.35;3.50;;;8.70;99.90;;;;;;5041494;28;20029;-42
2023/02/04 10:12:16;;;;;;;16.55;3.67;;;8.70;99.90;;;;;;5041297;28;20079;-42
2023/02/04 10:14:42;;;;;;;26.48;4.22;;;8.80;99.90;;;;;;5042058;28;20643;-43
2023/02/04 10:17:10;;;;;;;18.52;3.92;;;8.90;99.90;;;;;;5042434;28;20025;-43
2023/02/04 10:19:35;;;;;;;18.88;3.97;;;8.90;99.90;;;;;;5041096;28;20037;-43
2023/02/04 10:22:03;;;;;;;20.25;4.03;;;9.00;99.90;;;;;;5041856;28;20040;-43
2023/02/04 10:24:29;;;;;;;22.77;3.95;;;9.00;99.90;;;;;;5041811;28;20033;-42
2023/02/04 10:27:09;;;;;;;18.00;3.92;;;9.00;99.90;;;;;;5041534;28;20072;-43
2023/02/04 10:29:36;;;;;;;18.17;4.13;;;9.00;99.90;;;;;;5041706;28;20795;-42
2023/02/04 10:32:01;;;;;;;24.48;4.68;;;9.00;99.90;;;;;;5041374;28;20033;-43
2023/02/04 10:34:38;;;;;;;22.80;4.20;;;9.10;99.90;;;;;;5040084;28;20126;-42
2023/02/04 10:37:17;;;;;;;21.20;3.80;;;9.10;99.90;;;;;;5041955;28;20089;-42
2023/02/04 10:39:43;;;;;;;17.48;3.45;;;9.20;99.90;;;;;;5040365;28;20495;-42
2023/02/04 10:42:27;;;;;;;17.02;3.35;;;9.30;99.90;;;;;;5041413;28;20613;-43
2023/02/04 10:44:53;;;;;;;18.00;3.13;;;9.30;99.90;;;;;;5041188;28;20025;-43
2023/02/04 10:47:29;;;;;;;17.30;2.95;;;9.40;99.90;;;;;;5040999;28;20079;-43
2023/02/04 10:50:05;;;;;;;16.75;3.47;;;9.50;99.90;;;;;;5040545;28;20113;-43
2023/02/04 10:52:50;;;;;;;16.98;3.22;;;9.60;99.90;;;;;;5041615;28;20102;-43
2023/02/04 10:55:18;;;;;;;21.02;3.58;;;9.70;99.90;;;;;;5040674;28;20140;-43
2023/02/04 10:57:46;;;;;;;21.02;3.60;;;9.70;99.90;;;;;;5041360;28;20029;-42
2023/02/04 11:00:20;;;;;;;16.75;3.13;;;9.70;99.90;;;;;;5041155;28;20113;-42
2023/02/04 11:03:03;;;;;;;17.13;3.30;;;9.80;99.90;;;;;;5041044;28;20097;-43
2023/02/04 11:05:31;;;;;;;19.08;3.63;;;9.70;99.90;;;;;;5040859;28;20457;-43
2023/02/04 11:07:57;;;;;;;20.35;3.15;;;9.70;99.90;;;;;;5039957;28;20025;-43
2023/02/04 11:10:27;;;;;;;19.05;3.10;;;9.70;99.90;;;;;;5040829;28;20039;-43
2023/02/04 11:12:53;;;;;;;15.75;3.45;;;9.70;99.90;;;;;;5041159;28;20036;-43
2023/02/04 11:15:40;;;;;;;15.45;3.05;;;9.80;99.90;;;;;;5040715;28;20029;-44
2023/02/04 11:18:09;;;;;;;17.85;2.90;;;9.80;99.90;;;;;;5032237;28;20037;-44
2023/02/04 11:20:38;;;;;;;16.85;3.92;;;9.90;99.90;;;;;;5040154;28;20017;-44
2023/02/04 11:23:35;;;;;;;16.92;2.83;;;9.90;99.90;;;;;;5039979;28;20074;-44
2023/02/04 11:26:20;;;;;;;16.35;2.88;;;9.90;99.90;;;;;;5035262;28;20045;-44
2023/02/04 11:29:08;;;;;;;15.65;3.05;;;9.90;99.90;;;;;;5039694;28;20021;-43
2023/02/04 11:31:34;;;;;;;18.52;3.00;;;10.00;99.90;;;;;;5040307;28;20017;-42
2023/02/04 11:34:22;;;;;;;18.50;3.33;;;9.90;99.90;;;;;;5040444;28;20049;-42
2023/02/04 11:37:00;;;;;;;20.67;3.72;;;10.00;99.90;;;;;;5039583;28;20064;-43
2023/02/04 11:39:31;;;;;;;13.13;3.17;;;9.90;99.90;;;;;;5041185;28;20149;-43
2023/02/04 11:41:58;;;;;;;15.82;2.85;;;9.90;99.90;;;;;;5039724;28;20028;-43
2023/02/04 11:44:24;;;;;;;18.73;3.28;;;10.00;99.90;;;;;;5039951;28;20031;-43
2023/02/04 11:46:54;;;;;;;16.80;2.88;;;10.00;99.90;;;;;;5040176;28;20014;-43
2023/02/04 11:49:21;;;;;;;19.25;3.28;;;10.00;99.90;;;;;;5040629;28;20035;-43
2023/02/04 11:51:46;;;;;;;13.57;2.65;;;10.10;99.90;;;;;;5039135;28;20036;-43
2023/02/04 11:54:15;;;;;;;10.85;2.30;;;10.30;99.90;;;;;;5040685;28;20049;-43
2023/02/04 11:56:41;;;;;;;16.42;2.75;;;10.40;99.90;;;;;;5040446;28;20108;-43
2023/02/04 11:59:09;;;;;;;15.80;2.70;;;10.60;99.90;;;;;;5040046;28;20033;-43
2023/02/04 12:01:35;;;;;;;16.17;2.95;;;10.60;99.90;;;;;;5041025;28;20028;-43
2023/02/04 12:04:05;;;;;;;13.48;2.50;;;10.70;99.90;;;;;;5039464;28;20481;-43
2023/02/04 12:06:34;;;;;;;12.88;2.28;;;10.80;99.90;;;;;;5040563;28;20021;-44
2023/02/04 12:09:16;;;;;;;13.00;2.80;;;10.80;99.90;;;;;;5040637;28;20021;-43
2023/02/04 12:11:58;;;;;;;16.33;3.28;;;10.90;99.90;;;;;;5041119;28;20036;-43
2023/02/04 12:14:35;;;;;;;14.82;2.80;;;10.80;99.90;;;;;;5044000;28;20033;-43
2023/02/04 12:17:14;;;;;;;16.52;2.55;;;10.90;99.90;;;;;;5044413;28;20063;-42
2023/02/04 12:19:40;;;;;;;13.02;2.75;;;10.90;99.90;;;;;;5043825;28;20052;-43
2023/02/04 12:22:05;;;;;;;15.93;3.22;;;10.80;99.90;;;;;;5043928;28;20199;-43
2023/02/04 12:24:31;;;;;;;12.23;2.50;;;10.90;99.90;;;;;;5043390;28;20021;-42
2023/02/04 12:26:56;;;;;;;17.50;2.88;;;10.90;99.90;;;;;;5043680;28;20044;-43
2023/02/04 12:29:22;;;;;;;18.35;3.50;;;10.90;99.90;;;;;;5043674;28;20036;-43
2023/02/04 12:31:50;;;;;;;10.20;2.20;;;11.00;99.90;;;;;;5043578;28;20063;-43
2023/02/04 12:34:16;;;;;;;10.57;2.30;;;11.00;99.90;;;;;;5042546;28;20086;-42
2023/02/04 12:36:42;;;;;;;11.98;2.30;;;11.10;99.90;;;;;;5042591;28;20041;-43
2023/02/04 12:39:09;;;;;;;11.98;2.55;;;11.10;99.90;;;;;;5042426;28;20017;-43
2023/02/04 12:41:35;;;;;;;13.38;2.45;;;11.10;99.90;;;;;;5044221;28;20029;-43
2023/02/04 12:44:01;;;;;;;13.20;2.55;;;11.10;99.90;;;;;;5043161;28;20013;-43
2023/02/04 12:46:27;;;;;;;10.65;2.20;;;11.10;99.90;;;;;;5043476;28;20150;-43